createdAt,value
2022-10-29T00:00:04.883Z,289
2022-10-29T00:00:34.986Z,279
2022-10-29T00:00:51.865Z,256
2022-10-29T00:01:23.922Z,266
2022-10-29T00:01:40.979Z,285
2022-10-29T00:02:12.475Z,264
2022-10-29T00:02:34.186Z,286
2022-10-29T00:02:59.841Z,286
2022-10-29T00:03:31.836Z,286
2022-10-29T00:04:03.593Z,286
2022-10-29T00:04:34.239Z,286
2022-10-29T00:04:51.656Z,286
2022-10-29T00:05:24.934Z,268
2022-10-29T00:05:41.947Z,269
2022-10-29T00:06:11.772Z,295
2022-10-29T00:06:34.097Z,295
2022-10-29T00:06:59.623Z,295
2022-10-29T00:07:33.042Z,295
2022-10-29T00:08:03.644Z,285
2022-10-29T00:08:35.468Z,268
2022-10-29T00:09:07.723Z,296
2022-10-29T00:09:34.229Z,296
2022-10-29T00:09:56.300Z,296
2022-10-29T00:10:28.080Z,288
2022-10-29T00:10:59.601Z,272
2022-10-29T00:11:31.811Z,310
2022-10-29T00:12:03.762Z,312
2022-10-29T00:12:34.213Z,312
2022-10-29T00:12:51.691Z,312
2022-10-29T00:13:24.394Z,312
2022-10-29T00:13:41.314Z,312
2022-10-29T00:14:11.777Z,312
2022-10-29T00:14:34.196Z,312
2022-10-29T00:14:59.626Z,312
2022-10-29T00:15:32.676Z,312
2022-10-29T00:16:03.810Z,312
2022-10-29T00:16:34.062Z,312
2022-10-29T00:16:52.442Z,312
2022-10-29T00:17:23.626Z,312
2022-10-29T00:17:40.712Z,312
2022-10-29T00:18:11.857Z,312
2022-10-29T00:18:34.305Z,312
2022-10-29T00:19:00.567Z,312
2022-10-29T00:19:31.603Z,312
2022-10-29T00:20:04.896Z,312
2022-10-29T00:20:34.043Z,312
2022-10-29T00:20:51.957Z,312
2022-10-29T00:21:24.614Z,312
2022-10-29T00:21:41.641Z,312
2022-10-29T00:22:11.684Z,312
2022-10-29T00:22:34.170Z,312
2022-10-29T00:23:00.433Z,312
2022-10-29T00:23:31.777Z,312
2022-10-29T00:24:03.593Z,312
2022-10-29T00:24:34.050Z,312
2022-10-29T00:24:51.779Z,312
2022-10-29T00:25:24.375Z,312
2022-10-29T00:25:41.420Z,312
2022-10-29T00:26:11.578Z,312
2022-10-29T00:26:34.091Z,312
2022-10-29T00:26:59.729Z,312
2022-10-29T00:27:32.714Z,312
2022-10-29T00:28:03.585Z,312
2022-10-29T00:28:34.802Z,312
2022-10-29T00:28:51.704Z,312
2022-10-29T00:29:23.764Z,312
2022-10-29T00:29:40.922Z,312
2022-10-29T00:30:12.481Z,312
2022-10-29T00:30:34.060Z,312
2022-10-29T00:30:59.903Z,312
2022-10-29T00:31:31.802Z,312
2022-10-29T00:32:03.733Z,312
2022-10-29T00:32:34.882Z,312
2022-10-29T00:33:07.132Z,312
2022-10-29T00:33:24.332Z,312
2022-10-29T00:33:41.496Z,312
2022-10-29T00:34:11.607Z,312
2022-10-29T00:34:34.114Z,312
2022-10-29T00:35:00.398Z,312
2022-10-29T00:35:31.809Z,312
2022-10-29T00:36:03.632Z,312
2022-10-29T00:36:34.251Z,312
2022-10-29T00:36:52.951Z,312
2022-10-29T00:37:35.247Z,312
2022-10-29T00:37:55.851Z,312
2022-10-29T00:38:27.820Z,312
2022-10-29T00:39:00.737Z,312
2022-10-29T00:39:31.842Z,312
2022-10-29T00:40:03.717Z,312
2022-10-29T00:40:34.226Z,312
2022-10-29T00:40:51.877Z,312
2022-10-29T00:41:24.279Z,312
2022-10-29T00:41:41.400Z,312
2022-10-29T00:42:11.586Z,312
2022-10-29T00:42:34.051Z,312
2022-10-29T00:43:00.438Z,312
2022-10-29T00:43:31.753Z,312
2022-10-29T00:44:03.717Z,312
2022-10-29T00:44:34.231Z,312
2022-10-29T00:44:52.227Z,312
2022-10-29T00:45:24.601Z,312
2022-10-29T00:45:41.404Z,312
2022-10-29T00:46:11.735Z,312
2022-10-29T00:46:34.105Z,312
2022-10-29T00:46:59.607Z,312
2022-10-29T00:47:32.244Z,312
2022-10-29T00:48:03.747Z,312
2022-10-29T00:48:35.062Z,312
2022-10-29T00:49:07.197Z,312
2022-10-29T00:49:23.738Z,312
2022-10-29T00:49:41.483Z,312
2022-10-29T00:50:11.868Z,312
2022-10-29T00:50:34.121Z,312
2022-10-29T00:51:00.434Z,312
2022-10-29T00:51:31.690Z,312
2022-10-29T00:52:03.744Z,312
2022-10-29T00:52:34.111Z,312
2022-10-29T00:52:51.571Z,312
2022-10-29T00:53:24.352Z,312
2022-10-29T00:53:41.363Z,312
2022-10-29T00:54:11.756Z,312
2022-10-29T00:54:34.068Z,312
2022-10-29T00:55:00.577Z,312
2022-10-29T00:55:31.688Z,312
2022-10-29T00:56:03.773Z,312
2022-10-29T00:56:34.060Z,312
2022-10-29T00:56:51.581Z,312
2022-10-29T00:57:24.492Z,312
2022-10-29T00:57:41.561Z,312
2022-10-29T00:58:11.705Z,312
2022-10-29T00:58:34.213Z,312
2022-10-29T00:58:59.580Z,312
2022-10-29T00:59:32.605Z,312
2022-10-29T01:00:03.941Z,312
2022-10-29T01:00:34.071Z,312
2022-10-29T01:00:52.580Z,312
2022-10-29T01:01:29.920Z,312
2022-10-29T01:01:56.136Z,312
2022-10-29T01:02:27.956Z,312
2022-10-29T01:02:59.955Z,312
2022-10-29T01:03:31.664Z,312
2022-10-29T01:04:03.730Z,312
2022-10-29T01:04:34.103Z,312
2022-10-29T01:04:51.754Z,312
2022-10-29T01:05:24.507Z,312
2022-10-29T01:05:41.648Z,312
2022-10-29T01:06:11.698Z,312
2022-10-29T01:06:34.751Z,312
2022-10-29T01:06:59.735Z,312
2022-10-29T01:07:31.646Z,312
2022-10-29T01:08:04.508Z,312
2022-10-29T01:08:34.059Z,312
2022-10-29T01:08:51.784Z,312
2022-10-29T01:09:24.312Z,312
2022-10-29T01:09:41.476Z,312
2022-10-29T01:10:11.701Z,312
2022-10-29T01:10:34.071Z,312
2022-10-29T01:11:00.081Z,312
2022-10-29T01:11:32.282Z,312
2022-10-29T01:12:03.568Z,312
2022-10-29T01:12:34.770Z,312
2022-10-29T01:12:51.805Z,312
2022-10-29T01:13:23.774Z,312
2022-10-29T01:13:41.607Z,312
2022-10-29T01:14:12.714Z,312
2022-10-29T01:14:34.061Z,312
2022-10-29T01:14:59.763Z,312
2022-10-29T01:15:32.434Z,312
2022-10-29T01:16:03.548Z,312
2022-10-29T01:16:34.571Z,312
2022-10-29T01:17:08.402Z,312
2022-10-29T01:17:34.209Z,312
2022-10-29T01:17:56.067Z,312
2022-10-29T01:18:27.616Z,312
2022-10-29T01:18:59.672Z,312
2022-10-29T01:19:31.771Z,312
2022-10-29T01:20:03.928Z,312
2022-10-29T01:20:34.134Z,312
2022-10-29T01:20:51.644Z,312
2022-10-29T01:21:24.422Z,312
2022-10-29T01:21:41.561Z,312
2022-10-29T01:22:11.800Z,312
2022-10-29T01:22:33.961Z,312
2022-10-29T01:22:59.552Z,312
2022-10-29T01:23:32.534Z,312
2022-10-29T01:24:03.759Z,312
2022-10-29T01:24:35.009Z,312
2022-10-29T01:24:51.561Z,312
2022-10-29T01:25:23.737Z,312
2022-10-29T01:25:40.781Z,312
2022-10-29T01:26:12.613Z,312
2022-10-29T01:26:34.231Z,312
2022-10-29T01:26:59.685Z,312
2022-10-29T01:27:32.422Z,312
2022-10-29T01:28:03.596Z,312
2022-10-29T01:28:35.495Z,312
2022-10-29T01:29:07.579Z,312
2022-10-29T01:29:34.051Z,312
2022-10-29T01:29:55.651Z,312
2022-10-29T01:30:27.914Z,312
2022-10-29T01:31:00.372Z,312
2022-10-29T01:31:31.673Z,312
2022-10-29T01:32:04.425Z,312
2022-10-29T01:32:34.701Z,312
2022-10-29T01:33:08.245Z,312
2022-10-29T01:33:34.036Z,312
2022-10-29T01:33:55.671Z,312
2022-10-29T01:34:27.625Z,312
2022-10-29T01:34:59.738Z,312
2022-10-29T01:35:31.737Z,312
2022-10-29T01:36:03.605Z,312
2022-10-29T01:36:34.220Z,312
2022-10-29T01:36:51.727Z,312
2022-10-29T01:37:24.285Z,312
2022-10-29T01:37:41.389Z,312
2022-10-29T01:38:11.635Z,312
2022-10-29T01:38:34.065Z,312
2022-10-29T01:39:00.537Z,312
2022-10-29T01:39:31.731Z,312
2022-10-29T01:40:03.676Z,312
2022-10-29T01:40:34.245Z,312
2022-10-29T01:40:51.824Z,312
2022-10-29T01:41:24.298Z,312
2022-10-29T01:41:41.401Z,312
2022-10-29T01:42:11.550Z,312
2022-10-29T01:42:34.075Z,312
2022-10-29T01:43:00.177Z,312
2022-10-29T01:43:31.781Z,312
2022-10-29T01:44:03.623Z,312
2022-10-29T01:44:34.277Z,312
2022-10-29T01:44:51.566Z,312
2022-10-29T01:45:24.924Z,312
2022-10-29T01:45:41.633Z,312
2022-10-29T01:46:11.555Z,312
2022-10-29T01:46:34.067Z,312
2022-10-29T01:47:00.385Z,312
2022-10-29T01:47:31.742Z,312
2022-10-29T01:48:04.514Z,312
2022-10-29T01:48:34.204Z,312
2022-10-29T01:48:51.582Z,312
2022-10-29T01:49:23.724Z,312
2022-10-29T01:49:40.838Z,312
2022-10-29T01:50:12.482Z,312
2022-10-29T01:50:34.059Z,312
2022-10-29T01:50:59.778Z,312
2022-10-29T01:51:31.779Z,312
2022-10-29T01:52:03.724Z,312
2022-10-29T01:52:34.185Z,312
2022-10-29T01:52:51.544Z,312
2022-10-29T01:53:24.412Z,312
2022-10-29T01:53:41.445Z,312
2022-10-29T01:54:11.653Z,312
2022-10-29T01:54:34.091Z,312
2022-10-29T01:55:00.479Z,312
2022-10-29T01:55:31.646Z,312
2022-10-29T01:56:03.740Z,312
2022-10-29T01:56:34.067Z,312
2022-10-29T01:56:51.766Z,312
2022-10-29T01:57:24.445Z,312
2022-10-29T01:57:41.586Z,312
2022-10-29T01:58:11.754Z,312
2022-10-29T01:58:34.259Z,312
2022-10-29T01:59:00.525Z,312
2022-10-29T01:59:43.263Z,312
2022-10-29T02:00:03.924Z,312
2022-10-29T02:00:34.096Z,312
2022-10-29T02:00:51.802Z,312
2022-10-29T02:01:24.481Z,312
2022-10-29T02:01:41.544Z,312
2022-10-29T02:02:11.689Z,312
2022-10-29T02:02:34.172Z,312
2022-10-29T02:03:00.621Z,312
2022-10-29T02:03:31.606Z,312
2022-10-29T02:04:03.604Z,312
2022-10-29T02:04:34.049Z,312
2022-10-29T02:04:51.819Z,312
2022-10-29T02:05:24.418Z,312
2022-10-29T02:05:41.486Z,312
2022-10-29T02:06:11.663Z,312
2022-10-29T02:06:34.196Z,312
2022-10-29T02:07:00.323Z,312
2022-10-29T02:07:31.663Z,312
2022-10-29T02:08:03.573Z,312
2022-10-29T02:08:34.104Z,312
2022-10-29T02:08:51.594Z,312
2022-10-29T02:09:24.418Z,312
2022-10-29T02:09:41.586Z,312
2022-10-29T02:10:11.849Z,312
2022-10-29T02:10:34.170Z,312
2022-10-29T02:10:59.694Z,312
2022-10-29T02:11:32.523Z,312
2022-10-29T02:12:03.686Z,312
2022-10-29T02:12:34.854Z,312
2022-10-29T02:12:51.371Z,312
2022-10-29T02:13:24.008Z,312
2022-10-29T02:13:41.575Z,312
2022-10-29T02:14:12.379Z,312
2022-10-29T02:14:34.158Z,312
2022-10-29T02:14:59.774Z,312
2022-10-29T02:15:32.034Z,312
2022-10-29T02:16:03.549Z,312
2022-10-29T02:16:34.068Z,312
2022-10-29T02:16:51.708Z,312
2022-10-29T02:17:24.265Z,312
2022-10-29T02:17:41.382Z,312
2022-10-29T02:18:11.547Z,312
2022-10-29T02:18:34.158Z,312
2022-10-29T02:18:59.746Z,312
2022-10-29T02:19:32.308Z,312
2022-10-29T02:20:03.657Z,312
2022-10-29T02:20:35.516Z,312
2022-10-29T02:21:07.674Z,312
2022-10-29T02:21:34.081Z,312
2022-10-29T02:21:55.630Z,312
2022-10-29T02:22:27.556Z,312
2022-10-29T02:23:00.575Z,312
2022-10-29T02:23:31.697Z,312
2022-10-29T02:24:04.344Z,312
2022-10-29T02:24:34.206Z,312
2022-10-29T02:24:51.630Z,312
2022-10-29T02:25:24.030Z,312
2022-10-29T02:25:40.886Z,312
2022-10-29T02:26:12.336Z,312
2022-10-29T02:26:34.109Z,312
2022-10-29T02:26:59.732Z,312
2022-10-29T02:27:31.974Z,312
2022-10-29T02:28:03.543Z,312
2022-10-29T02:28:34.563Z,312
2022-10-29T02:28:51.564Z,312
2022-10-29T02:29:24.680Z,312
2022-10-29T02:29:41.577Z,312
2022-10-29T02:30:11.708Z,312
2022-10-29T02:30:34.041Z,312
2022-10-29T02:31:00.369Z,312
2022-10-29T02:31:31.829Z,312
2022-10-29T02:32:03.537Z,312
2022-10-29T02:32:34.202Z,312
2022-10-29T02:32:51.596Z,312
2022-10-29T02:33:24.270Z,312
2022-10-29T02:33:41.979Z,312
2022-10-29T02:34:11.560Z,312
2022-10-29T02:34:34.069Z,312
2022-10-29T02:34:59.743Z,312
2022-10-29T02:35:31.891Z,312
2022-10-29T02:36:04.337Z,312
2022-10-29T02:36:34.247Z,312
2022-10-29T02:36:51.603Z,312
2022-10-29T02:37:24.247Z,312
2022-10-29T02:37:42.134Z,312
2022-10-29T02:38:11.518Z,312
2022-10-29T02:38:34.071Z,312
2022-10-29T02:38:59.609Z,312
2022-10-29T02:39:31.711Z,312
2022-10-29T02:40:04.377Z,312
2022-10-29T02:40:34.119Z,312
2022-10-29T02:40:51.630Z,312
2022-10-29T02:41:23.591Z,312
2022-10-29T02:41:40.829Z,312
2022-10-29T02:42:12.386Z,312
2022-10-29T02:42:34.202Z,312
2022-10-29T02:42:59.644Z,312
2022-10-29T02:43:32.310Z,312
2022-10-29T02:44:03.674Z,312
2022-10-29T02:44:34.961Z,312
2022-10-29T02:45:08.643Z,312
2022-10-29T02:45:34.242Z,312
2022-10-29T02:45:55.889Z,312
2022-10-29T02:46:27.753Z,312
2022-10-29T02:46:59.519Z,312
2022-10-29T02:47:31.602Z,312
2022-10-29T02:48:03.715Z,312
2022-10-29T02:48:34.062Z,312
2022-10-29T02:48:51.580Z,312
2022-10-29T02:49:24.408Z,312
2022-10-29T02:49:42.138Z,312
2022-10-29T02:50:11.787Z,312
2022-10-29T02:50:34.264Z,312
2022-10-29T02:50:59.622Z,312
2022-10-29T02:51:32.372Z,312
2022-10-29T02:52:03.546Z,312
2022-10-29T02:52:34.056Z,312
2022-10-29T02:52:52.280Z,312
2022-10-29T02:53:23.497Z,312
2022-10-29T02:53:41.663Z,312
2022-10-29T02:54:11.614Z,312
2022-10-29T02:54:34.188Z,312
2022-10-29T02:55:00.335Z,312
2022-10-29T02:55:31.512Z,312
2022-10-29T02:56:04.400Z,312
2022-10-29T02:56:34.076Z,312
2022-10-29T02:56:51.691Z,312
2022-10-29T02:57:24.483Z,312
2022-10-29T02:57:42.115Z,312
2022-10-29T02:58:11.631Z,312
2022-10-29T02:58:34.051Z,312
2022-10-29T02:58:59.716Z,312
2022-10-29T02:59:31.502Z,312
2022-10-29T03:00:04.678Z,312
2022-10-29T03:00:34.191Z,312
2022-10-29T03:00:51.783Z,312
2022-10-29T03:01:23.771Z,312
2022-10-29T03:01:41.000Z,312
2022-10-29T03:02:12.628Z,312
2022-10-29T03:02:34.240Z,312
2022-10-29T03:03:00.394Z,312
2022-10-29T03:03:32.352Z,312
2022-10-29T03:04:03.555Z,312
2022-10-29T03:04:35.611Z,312
2022-10-29T03:05:07.767Z,312
2022-10-29T03:05:34.280Z,312
2022-10-29T03:05:55.767Z,312
2022-10-29T03:06:27.560Z,312
2022-10-29T03:07:00.567Z,312
2022-10-29T03:07:32.062Z,312
2022-10-29T03:08:04.236Z,312
2022-10-29T03:08:34.193Z,312
2022-10-29T03:08:51.524Z,312
2022-10-29T03:09:23.705Z,312
2022-10-29T03:09:40.826Z,312
2022-10-29T03:10:12.650Z,312
2022-10-29T03:10:34.990Z,312
2022-10-29T03:10:59.711Z,312
2022-10-29T03:11:32.174Z,312
2022-10-29T03:12:03.737Z,312
2022-10-29T03:12:34.142Z,312
2022-10-29T03:12:52.551Z,312
2022-10-29T03:13:23.613Z,312
2022-10-29T03:13:40.938Z,312
2022-10-29T03:14:12.299Z,312
2022-10-29T03:14:34.219Z,312
2022-10-29T03:14:59.519Z,312
2022-10-29T03:15:31.808Z,312
2022-10-29T03:16:03.712Z,312
2022-10-29T03:16:34.081Z,312
2022-10-29T03:16:51.570Z,311
2022-10-29T03:17:24.417Z,312
2022-10-29T03:17:41.517Z,311
2022-10-29T03:18:11.675Z,312
2022-10-29T03:18:34.292Z,312
2022-10-29T03:18:59.570Z,312
2022-10-29T03:19:32.592Z,312
2022-10-29T03:20:03.818Z,312
2022-10-29T03:20:35.075Z,312
2022-10-29T03:20:51.891Z,312
2022-10-29T03:21:23.512Z,312
2022-10-29T03:21:40.635Z,311
2022-10-29T03:22:12.168Z,311
2022-10-29T03:22:34.232Z,312
2022-10-29T03:22:59.706Z,311
2022-10-29T03:23:32.434Z,311
2022-10-29T03:24:03.503Z,311
2022-10-29T03:24:35.604Z,311
2022-10-29T03:25:07.874Z,312
2022-10-29T03:25:34.065Z,311
2022-10-29T03:25:56.240Z,312
2022-10-29T03:26:27.698Z,311
2022-10-29T03:27:00.245Z,311
2022-10-29T03:27:31.575Z,311
2022-10-29T03:28:03.560Z,311
2022-10-29T03:28:34.272Z,311
2022-10-29T03:28:51.701Z,312
2022-10-29T03:29:24.227Z,311
2022-10-29T03:29:41.343Z,311
2022-10-29T03:30:11.674Z,311
2022-10-29T03:30:35.009Z,311
2022-10-29T03:31:00.207Z,311
2022-10-29T03:31:31.608Z,311
2022-10-29T03:32:03.530Z,311
2022-10-29T03:32:34.356Z,311
2022-10-29T03:32:51.688Z,311
2022-10-29T03:33:24.183Z,311
2022-10-29T03:33:55.547Z,311
2022-10-29T03:34:28.326Z,311
2022-10-29T03:35:00.056Z,311
2022-10-29T03:35:32.579Z,311
2022-10-29T03:36:03.621Z,311
2022-10-29T03:36:35.522Z,311
2022-10-29T03:37:07.730Z,311
2022-10-29T03:37:34.236Z,311
2022-10-29T03:37:57.257Z,311
2022-10-29T03:38:27.563Z,311
2022-10-29T03:39:00.392Z,311
2022-10-29T03:39:31.657Z,311
2022-10-29T03:40:03.693Z,311
2022-10-29T03:40:34.235Z,311
2022-10-29T03:40:51.753Z,311
2022-10-29T03:41:24.246Z,311
2022-10-29T03:41:41.349Z,311
2022-10-29T03:42:11.549Z,311
2022-10-29T03:42:34.106Z,311
2022-10-29T03:43:00.536Z,311
2022-10-29T03:43:31.711Z,311
2022-10-29T03:44:04.313Z,311
2022-10-29T03:44:34.209Z,311
2022-10-29T03:44:51.469Z,311
2022-10-29T03:45:24.508Z,311
2022-10-29T03:45:41.327Z,311
2022-10-29T03:46:11.547Z,311
2022-10-29T03:46:34.098Z,311
2022-10-29T03:46:59.777Z,311
2022-10-29T03:47:32.151Z,311
2022-10-29T03:48:03.515Z,311
2022-10-29T03:48:34.080Z,311
2022-10-29T03:48:52.398Z,311
2022-10-29T03:49:23.766Z,311
2022-10-29T03:49:40.812Z,311
2022-10-29T03:50:12.546Z,311
2022-10-29T03:50:34.119Z,311
2022-10-29T03:50:59.816Z,311
2022-10-29T03:51:32.449Z,311
2022-10-29T03:52:03.487Z,311
2022-10-29T03:52:34.889Z,311
2022-10-29T03:52:51.565Z,311
2022-10-29T03:53:23.732Z,311
2022-10-29T03:53:40.794Z,311
2022-10-29T03:54:12.238Z,311
2022-10-29T03:54:34.338Z,311
2022-10-29T03:54:59.697Z,311
2022-10-29T03:55:32.422Z,311
2022-10-29T03:56:03.490Z,311
2022-10-29T03:56:34.229Z,311
2022-10-29T03:56:52.375Z,311
2022-10-29T03:57:23.607Z,311
2022-10-29T03:57:40.784Z,311
2022-10-29T03:58:11.484Z,311
2022-10-29T03:58:34.068Z,311
2022-10-29T03:59:00.497Z,311
2022-10-29T03:59:31.707Z,311
2022-10-29T04:00:03.899Z,311
2022-10-29T04:00:34.237Z,311
2022-10-29T04:01:07.797Z,311
2022-10-29T04:01:34.643Z,311
2022-10-29T04:01:55.844Z,311
2022-10-29T04:02:28.352Z,311
2022-10-29T04:03:00.165Z,311
2022-10-29T04:03:31.704Z,311
2022-10-29T04:04:03.643Z,311
2022-10-29T04:04:34.124Z,311
2022-10-29T04:04:52.363Z,311
2022-10-29T04:05:23.797Z,311
2022-10-29T04:05:40.869Z,311
2022-10-29T04:06:12.186Z,311
2022-10-29T04:06:34.211Z,311
2022-10-29T04:06:59.486Z,311
2022-10-29T04:07:32.242Z,311
2022-10-29T04:08:03.699Z,311
2022-10-29T04:08:35.444Z,311
2022-10-29T04:09:07.493Z,311
2022-10-29T04:09:34.238Z,311
2022-10-29T04:09:56.182Z,311
2022-10-29T04:10:27.826Z,311
2022-10-29T04:11:00.303Z,311
2022-10-29T04:11:31.551Z,311
2022-10-29T04:12:03.646Z,311
2022-10-29T04:12:34.085Z,311
2022-10-29T04:12:51.543Z,311
2022-10-29T04:13:24.302Z,311
2022-10-29T04:13:42.110Z,311
2022-10-29T04:14:11.702Z,311
2022-10-29T04:14:34.331Z,311
2022-10-29T04:14:59.534Z,311
2022-10-29T04:15:32.658Z,311
2022-10-29T04:16:03.675Z,311
2022-10-29T04:16:34.983Z,311
2022-10-29T04:16:51.495Z,311
2022-10-29T04:17:23.503Z,311
2022-10-29T04:17:40.669Z,311
2022-10-29T04:18:12.507Z,311
2022-10-29T04:18:34.257Z,311
2022-10-29T04:18:59.447Z,311
2022-10-29T04:19:31.482Z,311
2022-10-29T04:20:07.011Z,311
2022-10-29T04:21:08.805Z,311
2022-10-29T04:26:25.882Z,311
2022-10-29T04:28:42.027Z,311
2022-10-29T04:28:51.702Z,311
2022-10-29T04:29:24.381Z,311
2022-10-29T04:29:41.502Z,311
2022-10-29T04:30:34.064Z,311
2022-10-29T04:30:59.779Z,311
2022-10-29T04:31:31.692Z,311
2022-10-29T04:32:03.495Z,311
2022-10-29T04:32:34.238Z,311
2022-10-29T04:32:51.596Z,311
2022-10-29T04:33:24.242Z,311
2022-10-29T04:33:42.129Z,311
2022-10-29T04:34:11.536Z,311
2022-10-29T04:34:34.062Z,311
2022-10-29T04:34:59.550Z,311
2022-10-29T04:35:31.848Z,311
2022-10-29T04:36:03.945Z,311
2022-10-29T04:36:34.584Z,311
2022-10-29T04:36:51.484Z,311
2022-10-29T04:37:24.381Z,311
2022-10-29T04:37:41.491Z,311
2022-10-29T04:38:11.710Z,311
2022-10-29T04:38:34.253Z,311
2022-10-29T04:38:59.495Z,311
2022-10-29T04:39:32.337Z,311
2022-10-29T04:40:03.802Z,311
2022-10-29T04:40:34.084Z,311
2022-10-29T04:40:52.415Z,311
2022-10-29T04:41:23.490Z,311
2022-10-29T04:41:40.659Z,311
2022-10-29T04:42:11.700Z,311
2022-10-29T04:42:34.340Z,311
2022-10-29T04:43:00.101Z,311
2022-10-29T04:43:31.535Z,311
2022-10-29T04:44:04.386Z,311
2022-10-29T04:44:34.519Z,311
2022-10-29T04:44:51.715Z,311
2022-10-29T04:45:23.843Z,311
2022-10-29T04:45:41.105Z,311
2022-10-29T04:46:12.307Z,311
2022-10-29T04:46:34.161Z,311
2022-10-29T04:46:59.658Z,311
2022-10-29T04:47:31.549Z,311
2022-10-29T04:48:03.514Z,311
2022-10-29T04:48:34.338Z,311
2022-10-29T04:48:51.786Z,311
2022-10-29T04:49:24.279Z,311
2022-10-29T04:49:41.402Z,311
2022-10-29T04:50:11.674Z,311
2022-10-29T04:50:34.066Z,311
2022-10-29T04:50:59.752Z,311
2022-10-29T04:51:32.158Z,311
2022-10-29T04:52:03.489Z,311
2022-10-29T04:52:34.727Z,311
2022-10-29T04:53:06.900Z,311
2022-10-29T04:53:23.649Z,311
2022-10-29T04:53:41.550Z,311
2022-10-29T04:54:27.530Z,311
2022-10-29T04:55:00.428Z,311
2022-10-29T04:55:31.815Z,311
2022-10-29T04:56:03.605Z,311
2022-10-29T04:56:34.289Z,311
2022-10-29T04:56:51.458Z,311
2022-10-29T04:57:24.155Z,311
2022-10-29T04:57:41.362Z,311
2022-10-29T04:58:11.535Z,311
2022-10-29T04:58:34.092Z,311
2022-10-29T04:58:59.546Z,311
2022-10-29T04:59:32.172Z,311
2022-10-29T05:00:03.835Z,311
2022-10-29T05:00:34.956Z,311
2022-10-29T05:01:07.429Z,311
2022-10-29T05:01:23.898Z,311
2022-10-29T05:01:41.382Z,311
2022-10-29T05:02:11.675Z,311
2022-10-29T05:02:34.247Z,311
2022-10-29T05:03:00.513Z,311
2022-10-29T05:03:31.758Z,311
2022-10-29T05:04:03.660Z,311
2022-10-29T05:04:34.091Z,311
2022-10-29T05:04:51.490Z,311
2022-10-29T05:05:24.794Z,311
2022-10-29T05:05:41.514Z,311
2022-10-29T05:06:11.702Z,311
2022-10-29T05:06:34.214Z,311
2022-10-29T05:07:00.241Z,311
2022-10-29T05:07:31.515Z,311
2022-10-29T05:08:03.605Z,311
2022-10-29T05:08:34.080Z,311
2022-10-29T05:08:51.517Z,311
2022-10-29T05:09:24.423Z,311
2022-10-29T05:09:41.504Z,311
2022-10-29T05:10:11.804Z,311
2022-10-29T05:10:34.185Z,311
2022-10-29T05:10:59.719Z,311
2022-10-29T05:11:32.396Z,311
2022-10-29T05:12:03.529Z,311
2022-10-29T05:12:34.105Z,311
2022-10-29T05:12:52.258Z,311
2022-10-29T05:13:23.484Z,311
2022-10-29T05:13:40.629Z,311
2022-10-29T05:14:13.143Z,311
2022-10-29T05:14:34.098Z,311
2022-10-29T05:14:59.676Z,311
2022-10-29T05:15:32.420Z,311
2022-10-29T05:16:03.459Z,311
2022-10-29T05:16:34.581Z,311
2022-10-29T05:17:34.099Z,311
2022-10-29T05:17:55.855Z,311
2022-10-29T05:18:28.232Z,311
2022-10-29T05:18:59.698Z,311
2022-10-29T05:19:31.685Z,311
2022-10-29T05:20:03.524Z,311
2022-10-29T05:20:34.664Z,311
2022-10-29T05:21:08.081Z,311
2022-10-29T05:21:34.227Z,311
2022-10-29T05:21:55.484Z,311
2022-10-29T05:22:27.478Z,311
2022-10-29T05:22:59.517Z,311
2022-10-29T05:23:31.649Z,311
2022-10-29T05:24:03.659Z,311
2022-10-29T05:24:34.106Z,311
2022-10-29T05:24:51.474Z,311
2022-10-29T05:25:25.541Z,311
2022-10-29T05:25:42.095Z,311
2022-10-29T05:26:11.636Z,311
2022-10-29T05:26:34.211Z,311
2022-10-29T05:26:59.471Z,311
2022-10-29T05:27:31.478Z,311
2022-10-29T05:28:03.518Z,311
2022-10-29T05:28:34.699Z,311
2022-10-29T05:28:51.894Z,311
2022-10-29T05:29:24.162Z,311
2022-10-29T05:29:41.745Z,311
2022-10-29T05:30:16.674Z,311
2022-10-29T05:30:34.108Z,311
2022-10-29T05:31:00.299Z,311
2022-10-29T05:31:31.590Z,311
2022-10-29T05:32:03.593Z,311
2022-10-29T05:32:51.555Z,311
2022-10-29T05:33:24.125Z,311
2022-10-29T05:33:42.096Z,311
2022-10-29T05:34:11.518Z,311
2022-10-29T05:34:34.118Z,311
2022-10-29T05:34:59.512Z,311
2022-10-29T05:35:32.585Z,311
2022-10-29T05:36:03.695Z,311
2022-10-29T05:36:35.057Z,311
2022-10-29T05:36:51.408Z,311
2022-10-29T05:37:23.645Z,311
2022-10-29T05:37:40.792Z,311
2022-10-29T05:38:12.267Z,311
2022-10-29T05:38:34.128Z,311
2022-10-29T05:38:59.524Z,311
2022-10-29T05:39:31.686Z,311
2022-10-29T05:40:03.902Z,311
2022-10-29T05:40:34.096Z,311
2022-10-29T05:40:51.595Z,311
2022-10-29T05:41:24.514Z,311
2022-10-29T05:41:41.597Z,311
2022-10-29T05:42:11.679Z,311
2022-10-29T05:42:34.254Z,311
2022-10-29T05:43:00.865Z,311
2022-10-29T05:43:31.528Z,311
2022-10-29T05:44:03.693Z,311
2022-10-29T05:44:34.069Z,311
2022-10-29T05:44:51.467Z,311
2022-10-29T05:45:24.523Z,311
2022-10-29T05:45:41.564Z,311
2022-10-29T05:46:11.669Z,311
2022-10-29T05:46:34.292Z,311
2022-10-29T05:46:59.508Z,311
2022-10-29T05:47:32.362Z,311
2022-10-29T05:48:03.666Z,311
2022-10-29T05:48:34.144Z,311
2022-10-29T05:48:52.198Z,311
2022-10-29T05:49:23.468Z,311
2022-10-29T05:49:40.602Z,311
2022-10-29T05:50:11.699Z,311
2022-10-29T05:50:34.292Z,311
2022-10-29T05:51:00.388Z,311
2022-10-29T05:51:31.446Z,311
2022-10-29T05:52:03.567Z,311
2022-10-29T05:52:34.068Z,311
2022-10-29T05:52:51.678Z,311
2022-10-29T05:53:24.242Z,311
2022-10-29T05:53:55.489Z,311
2022-10-29T05:54:27.558Z,311
2022-10-29T05:54:59.730Z,311
2022-10-29T05:55:31.795Z,311
2022-10-29T05:56:03.471Z,311
2022-10-29T05:56:34.290Z,311
2022-10-29T05:56:52.184Z,311
2022-10-29T05:57:23.684Z,311
2022-10-29T05:57:40.896Z,311
2022-10-29T05:58:11.473Z,311
2022-10-29T05:58:34.088Z,311
2022-10-29T05:59:00.305Z,311
2022-10-29T05:59:33.736Z,311
2022-10-29T06:00:03.668Z,311
2022-10-29T06:00:34.583Z,311
2022-10-29T06:00:51.735Z,311
2022-10-29T06:01:24.104Z,311
2022-10-29T06:01:41.418Z,311
2022-10-29T06:02:11.659Z,311
2022-10-29T06:02:34.180Z,311
2022-10-29T06:03:00.698Z,311
2022-10-29T06:03:31.695Z,311
2022-10-29T06:04:04.340Z,311
2022-10-29T06:04:34.304Z,311
2022-10-29T06:04:51.649Z,311
2022-10-29T06:05:23.745Z,311
2022-10-29T06:05:40.727Z,311
2022-10-29T06:06:12.365Z,311
2022-10-29T06:06:34.194Z,311
2022-10-29T06:06:59.633Z,311
2022-10-29T06:07:32.083Z,311
2022-10-29T06:08:03.556Z,311
2022-10-29T06:08:34.271Z,311
2022-10-29T06:08:52.430Z,311
2022-10-29T06:09:23.674Z,311
2022-10-29T06:09:40.665Z,311
2022-10-29T06:10:12.639Z,311
2022-10-29T06:10:34.005Z,311
2022-10-29T06:10:59.723Z,311
2022-10-29T06:11:32.570Z,311
2022-10-29T06:12:03.541Z,311
2022-10-29T06:12:34.983Z,311
2022-10-29T06:12:52.385Z,311
2022-10-29T06:13:23.644Z,311
2022-10-29T06:13:40.602Z,311
2022-10-29T06:14:11.476Z,311
2022-10-29T06:14:34.123Z,311
2022-10-29T06:15:00.486Z,311
2022-10-29T06:15:31.710Z,311
2022-10-29T06:16:03.472Z,311
2022-10-29T06:16:34.232Z,311
2022-10-29T06:16:51.615Z,311
2022-10-29T06:17:24.184Z,311
2022-10-29T06:17:41.186Z,311
2022-10-29T06:18:11.506Z,311
2022-10-29T06:18:34.107Z,311
2022-10-29T06:19:00.383Z,311
2022-10-29T06:19:31.669Z,311
2022-10-29T06:20:03.583Z,311
2022-10-29T06:20:34.325Z,311
2022-10-29T06:20:51.753Z,311
2022-10-29T06:21:24.341Z,311
2022-10-29T06:21:41.369Z,311
2022-10-29T06:22:11.502Z,311
2022-10-29T06:22:35.041Z,311
2022-10-29T06:22:59.867Z,311
2022-10-29T06:23:32.255Z,311